CDT,Max TemperatureF,Mean TemperatureF,Min TemperatureF,Max Dew PointF,MeanDew PointF,Min DewpointF,Max Humidity, Mean Humidity, Min Humidity, Max Sea Level PressureIn, Mean Sea Level PressureIn, Min Sea Level PressureIn, Max VisibilityMiles, Mean VisibilityMiles, Min VisibilityMiles, Max Wind SpeedMPH, Mean Wind SpeedMPH, Max Gust SpeedMPH,PrecipitationIn, CloudCover, Events, WindDirDegrees
2013-7-1,89,76,64,60,56,50,84,54,28,29.99,29.94,29.90,10,10,10,14,5,21,0.00,1,,358
2013-7-2,87,74,61,60,54,49,90,54,28,30.06,30.01,29.97,10,9,6,12,3,16,0.00,1,,359
2013-7-3,89,72,57,58,54,49,90,56,27,30.11,30.04,29.99,10,10,7,5,1,,0.00,0,,170
2013-7-4,90,74,60,58,56,54,87,55,30,30.05,30.01,29.94,10,10,10,5,1,,0.00,0,,85
2013-7-5,93,76,61,64,58,52,90,54,26,30.04,29.98,29.92,10,10,6,6,1,,0.00,0,,90
2013-7-6,93,80,69,68,64,56,87,61,30,30.01,29.97,29.92,10,10,10,7,1,,0.00,0,,85
2013-7-7,96,82,68,70,67,65,90,63,37,30.04,30.00,29.96,10,10,9,7,1,,0.00,1,,92
2013-7-8,96,83,73,72,70,65,90,64,38,30.09,30.05,30.00,10,10,10,7,1,,0.00,2,,202
2013-7-9,98,86,73,72,69,65,90,59,35,30.10,30.03,29.95,10,10,10,9,2,,0.00,1,,211
2013-7-10,104,86,73,72,69,64,94,67,34,30.04,29.95,29.86,10,9,2,39,3,50,0.42,3,Rain-Thunderstorm,207
2013-7-11,99,84,71,75,71,64,96,72,35,29.99,29.94,29.88,10,9,4,8,1,21,0.00,2,Thunderstorm,68
2013-7-12,91,81,71,69,60,54,70,51,29,30.06,29.99,29.94,10,10,10,8,4,,0.00,0,,97
2013-7-13,89,74,60,67,60,57,90,61,37,30.05,30.00,29.94,10,10,8,8,1,,0.00,0,,184
2013-7-14,91,76,63,67,62,58,90,59,35,30.03,29.99,29.95,10,10,8,8,3,,0.00,0,,86
2013-7-15,93,83,73,70,67,64,82,61,37,30.14,30.07,30.02,10,10,10,8,5,16,0.00,1,Thunderstorm,95
2013-7-16,95,84,75,73,70,65,90,65,40,30.23,30.18,30.14,10,10,10,8,3,,0.00,1,,97
2013-7-17,97,84,71,71,68,64,91,61,35,30.28,30.22,30.14,10,10,10,8,1,17,0.00,0,,132
2013-7-18,100,85,71,70,67,59,90,60,26,30.18,30.10,29.99,10,10,10,7,1,,0.00,1,,200
2013-7-19,97,84,73,73,70,66,94,73,37,30.04,29.98,29.91,10,9,4,17,2,25,0.05,2,Rain-Thunderstorm,303
2013-7-20,93,82,71,73,70,67,100,81,42,29.99,29.94,29.83,10,6,0,8,1,,0.00,4,Fog-Thunderstorm,290
2013-7-21,93,81,71,72,70,68,91,67,46,29.94,29.89,29.83,10,10,10,10,2,16,0.00,2,Thunderstorm,255
2013-7-22,98,86,75,72,68,62,87,65,40,29.98,29.89,29.83,10,10,10,9,3,,0.00,2,Thunderstorm,299
2013-7-23,102,86,72,73,71,67,93,68,39,29.95,29.87,29.79,10,10,7,14,3,22,0.09,3,Rain-Thunderstorm,299
2013-7-24,93,81,71,72,70,65,94,77,41,29.99,29.93,29.81,10,9,2,16,5,25,0.27,4,Rain-Thunderstorm,328
2013-7-25,87,78,71,72,66,61,94,68,49,30.07,30.03,29.97,10,10,9,6,1,,0.00,2,,80
2013-7-26,73,70,68,70,67,64,94,86,71,30.08,30.02,29.97,10,8,1,6,2,,0.36,6,Rain,61
2013-7-27,91,78,66,67,65,60,94,72,39,30.03,29.97,29.90,10,9,3,6,1,,0.00,4,,310
2013-7-28,90,76,64,66,63,58,90,65,42,30.04,29.99,29.96,10,10,10,7,2,,0.00,1,,93
2013-7-29,91,80,70,73,68,63,79,69,54,30.09,30.04,29.99,10,10,10,9,4,,0.00,3,,120
2013-7-30,89,82,77,74,72,68,90,74,61,30.06,30.02,29.98,10,10,7,7,2,,0.00,5,,196
2013-7-31,93,83,73,75,73,69,94,79,52,30.04,29.99,29.93,10,10,5,14,2,21,0.17,3,Rain-Thunderstorm,280